createdAt,value
2019-03-05T00:01:09.061Z,48.05
2019-03-05T00:03:39.178Z,47.83
2019-03-05T00:06:09.378Z,47.72
2019-03-05T00:08:39.385Z,47.70
2019-03-05T00:11:09.510Z,48.16
2019-03-05T00:13:39.709Z,48.06
2019-03-05T00:16:09.901Z,50.10
2019-03-05T00:18:39.917Z,50.45
2019-03-05T00:21:09.946Z,48.58
2019-03-05T00:24:11.857Z,48.64
2019-03-05T00:26:42.058Z,48.30
2019-03-05T00:29:58.937Z,48.25
2019-03-05T00:32:28.957Z,48.03
2019-03-05T00:36:00.678Z,52.40
2019-03-05T00:39:11.987Z,52.75
2019-03-05T00:42:05.780Z,54.02
2019-03-05T00:45:11.135Z,54.32
2019-03-05T00:48:18.220Z,52.80
2019-03-05T00:51:24.543Z,52.05
2019-03-05T00:54:20.661Z,52.91
2019-03-05T00:57:08.016Z,50.27
2019-03-05T01:00:04.011Z,50.15
2019-03-05T01:03:00.277Z,50.24
2019-03-05T01:06:06.499Z,50.48
2019-03-05T01:08:36.622Z,50.08
2019-03-05T01:11:06.994Z,51.01
2019-03-05T01:13:37.440Z,53.48
2019-03-05T01:16:08.021Z,51.51
2019-03-05T01:18:38.068Z,50.69
2019-03-05T01:21:08.272Z,52.07
2019-03-05T01:23:38.467Z,51.30
2019-03-05T01:26:08.578Z,50.47
2019-03-05T01:28:38.703Z,51.28
2019-03-05T01:31:18.373Z,50.70
2019-03-05T01:33:59.744Z,50.28
2019-03-05T01:36:32.362Z,49.16
2019-03-05T01:39:30.752Z,49.50
2019-03-05T01:42:01.077Z,57.61
2019-03-05T01:44:31.195Z,50.77
2019-03-05T01:47:01.404Z,51.38
2019-03-05T01:49:31.605Z,51.50
2019-03-05T01:52:01.610Z,51.79
2019-03-05T01:54:31.631Z,50.07
2019-03-05T01:57:01.827Z,49.42
2019-03-05T01:59:32.018Z,53.54
2019-03-05T02:02:02.117Z,54.48
2019-03-05T02:04:32.237Z,52.97
2019-03-05T02:07:02.431Z,52.23
2019-03-05T02:09:32.620Z,52.27
2019-03-05T02:12:02.833Z,52.40
2019-03-05T02:14:33.024Z,53.47
2019-03-05T02:17:03.131Z,54.59
2019-03-05T02:19:50.230Z,52.83
2019-03-05T02:22:32.975Z,52.73
2019-03-05T02:25:31.848Z,52.46
2019-03-05T02:28:39.866Z,52.99
2019-03-05T02:31:45.539Z,52.90
2019-03-05T02:34:49.782Z,53.65
2019-03-05T02:37:48.483Z,54.57
2019-03-05T02:40:41.155Z,54.45
2019-03-05T02:43:34.379Z,54.09
2019-03-05T02:46:50.435Z,53.81
2019-03-05T02:49:42.093Z,53.96
2019-03-05T02:52:51.492Z,55.51
2019-03-05T02:55:47.086Z,54.74
2019-03-05T02:58:14.920Z,54.89
2019-03-05T03:01:01.324Z,54.18
2019-03-05T03:03:35.597Z,53.59
2019-03-05T03:06:27.717Z,55.16
2019-03-05T03:09:44.203Z,55.08
2019-03-05T03:12:14.119Z,54.52
2019-03-05T03:14:44.331Z,54.30
2019-03-05T03:17:14.516Z,53.83
2019-03-05T03:19:44.614Z,54.44
2019-03-05T03:22:14.623Z,54.71
2019-03-05T03:24:44.845Z,54.66
2019-03-05T03:27:15.028Z,56.78
2019-03-05T03:29:45.027Z,57.46
2019-03-05T03:32:15.070Z,57.84
2019-03-05T03:34:45.309Z,60.70
2019-03-05T03:37:15.557Z,61.42
2019-03-05T03:39:45.474Z,59.45
2019-03-05T03:42:15.759Z,59.41
2019-03-05T03:44:45.963Z,58.42
2019-03-05T03:47:15.983Z,58.15
2019-03-05T03:49:46.186Z,57.62
2019-03-05T03:52:16.383Z,56.84
2019-03-05T03:54:46.584Z,59.20
2019-03-05T03:57:16.647Z,59.57
2019-03-05T03:59:46.863Z,60.74
2019-03-05T04:02:17.122Z,59.66
2019-03-05T04:04:47.128Z,58.71
2019-03-05T04:07:17.230Z,59.68
2019-03-05T04:09:47.461Z,60.32
2019-03-05T04:12:17.643Z,58.29
2019-03-05T04:14:47.749Z,60.21
2019-03-05T04:17:17.868Z,58.00
2019-03-05T04:19:48.060Z,58.38
2019-03-05T04:22:18.185Z,58.30
2019-03-05T04:24:48.375Z,57.31
2019-03-05T04:27:18.565Z,57.17
2019-03-05T04:29:48.566Z,57.36
2019-03-05T04:32:18.477Z,57.33
2019-03-05T04:34:48.673Z,56.13
2019-03-05T04:37:18.863Z,55.62
2019-03-05T04:39:48.771Z,56.24
2019-03-05T04:42:18.789Z,56.22
2019-03-05T04:44:57.682Z,57.87
2019-03-05T04:47:28.046Z,59.43
2019-03-05T04:50:06.666Z,58.05
2019-03-05T04:52:37.972Z,57.30
2019-03-05T04:55:08.919Z,55.63
2019-03-05T04:57:39.211Z,55.33
2019-03-05T05:00:12.790Z,55.15
2019-03-05T05:02:42.977Z,56.93
2019-03-05T05:05:13.086Z,57.34
2019-03-05T05:07:42.994Z,55.92
2019-03-05T05:10:13.281Z,55.85
2019-03-05T05:12:43.475Z,56.52
2019-03-05T05:15:44.751Z,55.77
2019-03-05T05:18:14.777Z,55.02
2019-03-05T05:20:45.021Z,55.29
2019-03-05T05:23:15.240Z,54.98
2019-03-05T05:25:45.266Z,54.84
2019-03-05T05:28:15.175Z,54.37
2019-03-05T05:30:45.496Z,53.83
2019-03-05T05:33:15.723Z,53.40
2019-03-05T05:35:45.704Z,53.89
2019-03-05T05:38:15.815Z,54.17
2019-03-05T05:40:47.061Z,55.04
2019-03-05T05:43:22.893Z,57.52
2019-03-05T05:45:53.557Z,58.07
2019-03-05T05:48:23.767Z,58.27
2019-03-05T05:50:53.769Z,58.63
2019-03-05T05:53:23.888Z,58.35
2019-03-05T05:55:54.080Z,59.70
2019-03-05T05:58:24.285Z,59.99
2019-03-05T06:00:56.708Z,60.05
2019-03-05T06:03:26.739Z,59.61
2019-03-05T06:05:57.146Z,58.00
2019-03-05T06:08:27.339Z,56.28
2019-03-05T06:10:57.455Z,56.34
2019-03-05T06:13:27.525Z,55.86
2019-03-05T06:15:57.778Z,55.88
2019-03-05T06:18:27.981Z,56.58
2019-03-05T06:20:57.886Z,55.09
2019-03-05T06:23:27.812Z,54.50
2019-03-05T06:25:58.009Z,54.37
2019-03-05T06:28:28.228Z,53.23
2019-03-05T06:30:58.122Z,53.34
2019-03-05T06:33:28.191Z,51.74
2019-03-05T06:35:58.658Z,53.75
2019-03-05T06:38:29.084Z,54.06
2019-03-05T06:40:58.994Z,61.33
2019-03-05T06:43:28.903Z,50.94
2019-03-05T06:45:59.443Z,50.65
2019-03-05T06:48:29.876Z,47.60
2019-03-05T06:50:59.790Z,47.17
2019-03-05T06:53:29.793Z,44.38
2019-03-05T06:56:00.001Z,43.09
2019-03-05T06:58:30.192Z,42.01
2019-03-05T07:01:00.293Z,40.45
2019-03-05T07:03:30.530Z,42.68
2019-03-05T07:06:36.019Z,42.27
2019-03-05T07:09:15.154Z,40.39
2019-03-05T07:12:13.187Z,40.01
2019-03-05T07:15:48.190Z,41.18
2019-03-05T07:18:31.823Z,38.99
2019-03-05T07:21:26.027Z,37.74
2019-03-05T07:24:38.395Z,37.54
2019-03-05T07:27:09.594Z,37.29
2019-03-05T07:29:39.787Z,39.00
2019-03-05T07:32:09.904Z,36.84
2019-03-05T07:34:42.575Z,36.39
2019-03-05T07:37:13.957Z,35.21
2019-03-05T07:39:43.960Z,34.93
2019-03-05T07:42:13.980Z,36.21
2019-03-05T07:44:44.394Z,34.89
2019-03-05T07:47:14.539Z,34.08
2019-03-05T07:49:44.833Z,32.99
2019-03-05T07:52:15.047Z,32.36
2019-03-05T07:54:44.947Z,33.69
2019-03-05T07:57:14.917Z,33.94
2019-03-05T07:59:45.113Z,34.90
2019-03-05T08:02:15.300Z,34.46
2019-03-05T08:04:45.225Z,33.93
2019-03-05T08:07:15.230Z,33.55
2019-03-05T08:09:45.438Z,32.99
2019-03-05T08:12:53.196Z,30.99
2019-03-05T08:16:01.728Z,30.28
2019-03-05T08:18:22.556Z,30.51
2019-03-05T08:20:52.800Z,30.01
2019-03-05T08:23:22.993Z,27.77
2019-03-05T08:25:52.912Z,26.65
2019-03-05T08:28:23.102Z,28.72
2019-03-05T08:30:53.093Z,26.90
2019-03-05T08:33:23.005Z,30.22
2019-03-05T08:35:53.210Z,28.60
2019-03-05T08:38:23.385Z,29.08
2019-03-05T08:40:53.503Z,26.17
2019-03-05T08:43:23.612Z,26.45
2019-03-05T08:45:53.989Z,25.11
2019-03-05T08:48:24.205Z,26.08
2019-03-05T08:50:54.197Z,26.11
2019-03-05T08:53:24.432Z,24.06
2019-03-05T08:55:54.669Z,24.32
2019-03-05T08:58:24.870Z,23.72
2019-03-05T09:00:54.982Z,24.60
2019-03-05T09:03:24.995Z,23.11
2019-03-05T09:05:55.185Z,24.00
2019-03-05T09:08:25.307Z,22.34
2019-03-05T09:10:56.107Z,21.32
2019-03-05T09:13:32.730Z,22.57
2019-03-05T09:15:58.124Z,21.39
2019-03-05T09:18:28.027Z,21.72
2019-03-05T09:20:58.240Z,21.25
2019-03-05T09:23:28.420Z,21.08
2019-03-05T09:25:58.430Z,21.06
2019-03-05T09:28:28.440Z,20.62
2019-03-05T09:30:58.645Z,22.82
2019-03-05T09:33:28.827Z,20.99
2019-03-05T09:35:58.826Z,21.60
2019-03-05T09:38:28.847Z,21.17
2019-03-05T09:40:59.082Z,19.77
2019-03-05T09:43:29.267Z,19.71
2019-03-05T09:45:59.786Z,20.25
2019-03-05T09:48:30.252Z,19.70
2019-03-05T09:51:00.263Z,19.88
2019-03-05T09:53:30.372Z,19.17
2019-03-05T09:56:00.746Z,19.97
2019-03-05T09:58:31.004Z,18.23
2019-03-05T10:01:00.946Z,19.25
2019-03-05T10:03:31.076Z,19.69
2019-03-05T10:06:01.293Z,20.16
2019-03-05T10:08:32.661Z,19.82
2019-03-05T10:11:03.064Z,18.94
2019-03-05T10:13:33.084Z,20.82
2019-03-05T10:16:03.379Z,18.42
2019-03-05T10:21:32.856Z,19.19
2019-03-05T10:24:10.408Z,20.38
2019-03-05T10:26:35.206Z,18.66
2019-03-05T10:29:07.576Z,17.64
2019-03-05T10:31:37.790Z,18.13
2019-03-05T10:34:09.458Z,18.17
2019-03-05T10:36:39.566Z,17.33
2019-03-05T10:39:30.685Z,17.00
2019-03-05T10:41:56.246Z,16.34
2019-03-05T10:44:26.452Z,17.42
2019-03-05T10:46:56.553Z,15.74
2019-03-05T10:49:26.858Z,14.88
2019-03-05T10:51:58.807Z,14.37
2019-03-05T10:54:29.143Z,15.24
2019-03-05T10:56:59.283Z,14.92
2019-03-05T10:59:29.310Z,13.81
2019-03-05T11:01:59.585Z,14.51
2019-03-05T11:04:29.774Z,14.40
2019-03-05T11:06:59.962Z,14.44
2019-03-05T11:09:30.150Z,14.64
2019-03-05T11:12:00.774Z,14.00
2019-03-05T11:14:31.318Z,13.61
2019-03-05T11:17:01.514Z,14.70
2019-03-05T11:19:31.699Z,14.36
2019-03-05T11:22:02.400Z,14.77
2019-03-05T11:24:32.949Z,15.21
2019-03-05T11:27:03.417Z,13.80
2019-03-05T11:29:34.036Z,14.06
2019-03-05T11:32:04.468Z,14.75
2019-03-05T11:34:35.028Z,14.92
2019-03-05T11:37:05.552Z,14.85
2019-03-05T11:39:35.952Z,14.14
2019-03-05T11:42:06.292Z,12.86
2019-03-05T11:44:36.787Z,13.65
2019-03-05T11:47:07.040Z,13.78
2019-03-05T11:49:37.231Z,13.10
2019-03-05T11:52:07.385Z,13.94
2019-03-05T11:54:37.408Z,15.11
2019-03-05T11:57:07.629Z,13.96
2019-03-05T11:59:37.815Z,13.88
2019-03-05T12:02:09.810Z,14.66
2019-03-05T12:04:39.973Z,14.56
2019-03-05T12:07:10.170Z,15.14
2019-03-05T12:09:40.364Z,14.42
2019-03-05T12:12:10.383Z,14.87
2019-03-05T12:14:40.402Z,14.50
2019-03-05T12:17:10.599Z,15.03
2019-03-05T12:19:40.894Z,16.14
2019-03-05T12:22:11.140Z,16.94
2019-03-05T12:24:41.333Z,15.32
2019-03-05T12:27:11.491Z,14.63
2019-03-05T12:29:41.507Z,14.11
2019-03-05T12:32:11.708Z,13.42
2019-03-05T12:34:41.906Z,14.01
2019-03-05T12:37:11.921Z,13.41
2019-03-05T12:39:42.578Z,13.84
2019-03-05T12:42:12.772Z,13.98
2019-03-05T12:44:42.976Z,13.62
2019-03-05T12:47:13.071Z,13.71
2019-03-05T12:49:42.981Z,14.74
2019-03-05T12:52:13.492Z,13.23
2019-03-05T12:54:43.691Z,13.69
2019-03-05T12:57:13.867Z,13.56
2019-03-05T12:59:43.966Z,13.53
2019-03-05T13:02:14.239Z,13.47
2019-03-05T13:04:44.434Z,12.69
2019-03-05T13:07:17.774Z,13.12
2019-03-05T13:09:46.363Z,13.65
2019-03-05T13:12:16.385Z,14.66
2019-03-05T13:14:46.377Z,14.48
2019-03-05T13:17:16.645Z,13.97
2019-03-05T13:19:47.942Z,13.57
2019-03-05T13:22:19.035Z,13.30
2019-03-05T13:24:50.308Z,13.54
2019-03-05T13:27:22.809Z,13.24
2019-03-05T13:29:53.212Z,12.19
2019-03-05T13:32:23.103Z,12.57
2019-03-05T13:34:53.107Z,12.30
2019-03-05T13:37:24.876Z,12.71
2019-03-05T13:39:58.144Z,12.54
2019-03-05T13:42:29.109Z,11.80
2019-03-05T13:44:58.619Z,11.84
2019-03-05T13:47:28.815Z,12.17
2019-03-05T13:50:45.431Z,11.09
2019-03-05T13:53:35.327Z,13.06
2019-03-05T13:56:51.819Z,13.18
2019-03-05T13:59:43.980Z,13.38
2019-03-05T14:02:16.344Z,13.80
2019-03-05T14:04:55.808Z,13.55
2019-03-05T14:07:59.928Z,13.67
2019-03-05T14:10:30.035Z,14.41
2019-03-05T14:13:00.127Z,13.89
2019-03-05T14:15:30.601Z,13.81
2019-03-05T14:18:00.969Z,13.93
2019-03-05T14:20:34.980Z,15.50
2019-03-05T14:23:04.087Z,14.41
2019-03-05T14:25:34.444Z,14.55
2019-03-05T14:28:04.629Z,15.24
2019-03-05T14:30:35.663Z,16.05
2019-03-05T14:33:06.373Z,16.60
2019-03-05T14:35:36.719Z,16.94
2019-03-05T14:38:06.936Z,17.05
2019-03-05T14:40:37.997Z,18.13
2019-03-05T14:43:08.550Z,18.11
2019-03-05T14:45:39.123Z,19.39
2019-03-05T14:48:09.166Z,19.98
2019-03-05T14:50:39.624Z,20.53
2019-03-05T14:53:09.831Z,20.85
2019-03-05T14:55:39.937Z,21.77
2019-03-05T14:58:10.043Z,21.52
2019-03-05T15:00:40.700Z,23.14
2019-03-05T15:03:10.949Z,22.61
2019-03-05T15:05:41.452Z,22.81
2019-03-05T15:08:11.559Z,24.68
2019-03-05T15:10:41.880Z,21.96
2019-03-05T15:13:15.766Z,22.46
2019-03-05T15:15:43.703Z,22.02
2019-03-05T15:18:13.989Z,20.77
2019-03-05T15:20:43.989Z,21.61
2019-03-05T15:23:14.448Z,21.31
2019-03-05T15:25:44.850Z,21.55
2019-03-05T15:28:15.019Z,22.06
2019-03-05T15:30:45.250Z,22.22
2019-03-05T15:33:15.314Z,22.02
2019-03-05T15:35:45.536Z,22.41
2019-03-05T15:38:15.877Z,23.75
2019-03-05T15:40:45.957Z,22.67
2019-03-05T15:43:15.967Z,23.00
2019-03-05T15:45:46.236Z,22.75
2019-03-05T15:48:16.490Z,24.11
2019-03-05T15:50:46.561Z,23.69
2019-03-05T15:53:16.807Z,23.94
2019-03-05T15:55:46.815Z,24.05
2019-03-05T15:58:17.049Z,23.83
2019-03-05T16:00:47.237Z,24.12
2019-03-05T16:03:17.442Z,23.83
2019-03-05T16:05:47.569Z,23.89
2019-03-05T16:08:20.981Z,24.31
2019-03-05T16:10:50.460Z,24.67
2019-03-05T16:13:21.467Z,24.14
2019-03-05T16:15:51.578Z,24.33
2019-03-05T16:18:21.598Z,24.37
2019-03-05T16:20:51.827Z,24.21
2019-03-05T16:23:22.277Z,24.79
2019-03-05T16:25:52.703Z,24.59
2019-03-05T16:28:23.148Z,24.10
2019-03-05T16:31:21.944Z,24.52
2019-03-05T16:34:13.010Z,24.22
2019-03-05T16:37:02.084Z,24.94
2019-03-05T16:39:41.280Z,24.83
2019-03-05T16:42:32.239Z,24.14
2019-03-05T16:45:20.496Z,24.14
2019-03-05T16:48:15.556Z,24.32
2019-03-05T16:51:07.546Z,24.99
2019-03-05T16:53:52.795Z,26.01
2019-03-05T16:56:41.755Z,26.54
2019-03-05T16:59:34.011Z,29.20
2019-03-05T17:02:26.187Z,31.67
2019-03-05T17:05:24.076Z,30.92
2019-03-05T17:08:02.884Z,31.39
2019-03-05T17:10:51.044Z,34.21
2019-03-05T17:13:21.276Z,33.48
2019-03-05T17:15:51.353Z,32.39
2019-03-05T17:18:21.489Z,33.78
2019-03-05T17:20:51.696Z,34.96
2019-03-05T17:23:22.144Z,33.83
2019-03-05T17:25:52.428Z,33.70
2019-03-05T17:28:22.560Z,33.78
2019-03-05T17:30:52.783Z,33.79
2019-03-05T17:33:22.994Z,33.27
2019-03-05T17:35:53.120Z,34.78
2019-03-05T17:38:23.258Z,36.88
2019-03-05T17:40:53.465Z,36.81
2019-03-05T17:43:24.020Z,36.78
2019-03-05T17:45:54.060Z,37.83
2019-03-05T17:48:24.116Z,38.50
2019-03-05T17:50:54.323Z,38.55
2019-03-05T17:53:24.538Z,38.27
2019-03-05T17:55:54.557Z,38.81
2019-03-05T17:58:24.767Z,38.38
2019-03-05T18:00:55.089Z,39.11
2019-03-05T18:03:25.241Z,37.08
2019-03-05T18:05:55.833Z,37.53
2019-03-05T18:08:26.050Z,38.70
2019-03-05T18:10:56.185Z,38.58
2019-03-05T18:13:26.308Z,40.18
2019-03-05T18:15:56.505Z,38.87
2019-03-05T18:18:26.725Z,39.69
2019-03-05T18:20:56.680Z,38.07
2019-03-05T18:23:26.983Z,41.47
2019-03-05T18:25:57.343Z,39.45
2019-03-05T18:28:27.923Z,41.43
2019-03-05T18:30:58.149Z,42.90
2019-03-05T18:33:28.304Z,42.29
2019-03-05T18:35:58.496Z,44.57
2019-03-05T18:38:28.774Z,44.18
2019-03-05T18:40:58.998Z,43.28
2019-03-05T18:43:29.240Z,42.57
2019-03-05T18:45:59.368Z,40.31
2019-03-05T18:48:29.523Z,42.80
2019-03-05T18:51:00.117Z,41.46
2019-03-05T18:53:30.400Z,42.13
2019-03-05T18:56:00.553Z,42.84
2019-03-05T18:58:30.499Z,42.80
2019-03-05T19:01:00.729Z,42.51
2019-03-05T19:03:32.061Z,41.80
2019-03-05T19:06:02.349Z,42.57
2019-03-05T19:08:32.277Z,42.14
2019-03-05T19:11:02.885Z,42.90
2019-03-05T19:13:33.334Z,44.23
2019-03-05T19:16:04.194Z,45.59
2019-03-05T19:18:34.501Z,43.00
2019-03-05T19:21:05.004Z,43.67
2019-03-05T19:23:35.461Z,44.08
2019-03-05T19:26:06.791Z,44.59
2019-03-05T19:28:37.005Z,44.22
2019-03-05T19:31:07.296Z,44.80
2019-03-05T19:33:37.480Z,43.52
2019-03-05T19:36:07.889Z,42.27
2019-03-05T19:38:38.113Z,42.94
2019-03-05T19:41:08.383Z,41.92
2019-03-05T19:43:38.533Z,41.89
2019-03-05T19:46:08.750Z,41.85
2019-03-05T19:48:38.977Z,43.57
2019-03-05T19:51:09.093Z,41.82
2019-03-05T19:53:39.349Z,42.28
2019-03-05T19:56:09.584Z,41.77
2019-03-05T19:58:39.932Z,41.58
2019-03-05T20:01:15.957Z,41.86
2019-03-05T20:03:46.273Z,42.91
2019-03-05T20:06:18.223Z,41.85
2019-03-05T20:08:48.452Z,41.88
2019-03-05T20:11:18.688Z,40.98
2019-03-05T20:13:48.935Z,42.61
2019-03-05T20:16:20.424Z,43.44
2019-03-05T20:18:50.609Z,42.70
2019-03-05T20:21:20.830Z,42.57
2019-03-05T20:23:51.046Z,42.01
2019-03-05T20:26:21.344Z,42.16
2019-03-05T20:28:52.649Z,44.07
2019-03-05T20:31:23.052Z,43.64
2019-03-05T20:33:53.370Z,42.78
2019-03-05T20:36:23.407Z,42.37
2019-03-05T20:38:53.640Z,41.97
2019-03-05T20:41:23.661Z,43.14
2019-03-05T20:43:53.701Z,42.89
2019-03-05T20:46:26.866Z,41.18
2019-03-05T20:48:57.098Z,41.14
2019-03-05T20:51:27.238Z,41.37
2019-03-05T20:53:57.900Z,40.48
2019-03-05T20:56:28.128Z,41.02
2019-03-05T20:58:58.347Z,40.94
2019-03-05T21:01:28.570Z,41.13
2019-03-05T21:03:58.638Z,41.31
2019-03-05T21:06:28.885Z,41.60
2019-03-05T21:08:59.104Z,41.87
2019-03-05T21:11:29.152Z,44.62
2019-03-05T21:13:59.307Z,45.07
2019-03-05T21:16:29.514Z,45.35
2019-03-05T21:18:59.467Z,47.14
2019-03-05T21:21:30.122Z,45.01
2019-03-05T21:24:00.341Z,45.56
2019-03-05T21:26:30.744Z,46.02
2019-03-05T21:29:00.882Z,44.92
2019-03-05T21:31:31.103Z,45.74
2019-03-05T21:34:01.448Z,48.19
2019-03-05T21:36:31.571Z,48.51
2019-03-05T21:39:01.778Z,49.69
2019-03-05T21:41:31.986Z,47.19
2019-03-05T21:44:02.177Z,46.11
2019-03-05T21:46:32.100Z,47.41
2019-03-05T21:49:02.024Z,49.36
2019-03-05T21:51:32.237Z,47.24
2019-03-05T21:54:02.443Z,46.50
2019-03-05T21:56:32.571Z,46.48
2019-03-05T21:59:02.771Z,45.45
2019-03-05T22:01:33.369Z,47.39
2019-03-05T22:04:03.413Z,46.43
2019-03-05T22:06:33.634Z,47.29
2019-03-05T22:09:04.816Z,48.42
2019-03-05T22:11:34.928Z,47.16
2019-03-05T22:14:05.038Z,47.04
2019-03-05T22:16:35.241Z,48.30
2019-03-05T22:19:05.456Z,52.10
2019-03-05T22:21:35.470Z,51.38
2019-03-05T22:24:06.074Z,49.40
2019-03-05T22:26:36.496Z,48.80
2019-03-05T22:29:07.282Z,48.74
2019-03-05T22:31:37.203Z,49.66
2019-03-05T22:34:07.373Z,47.97
2019-03-05T22:36:37.585Z,48.86
2019-03-05T22:39:08.890Z,48.11
2019-03-05T22:41:39.607Z,50.97
2019-03-05T22:44:09.638Z,50.27
2019-03-05T22:46:40.229Z,47.96
2019-03-05T22:49:10.437Z,48.76
2019-03-05T22:51:40.356Z,48.53
2019-03-05T22:54:10.282Z,48.75
2019-03-05T22:56:40.503Z,48.54
2019-03-05T22:59:10.776Z,50.18
2019-03-05T23:01:43.424Z,49.41
2019-03-05T23:04:16.118Z,48.65
2019-03-05T23:06:46.340Z,48.06
2019-03-05T23:09:26.945Z,47.67
2019-03-05T23:11:57.351Z,47.24
2019-03-05T23:14:27.471Z,46.98
2019-03-05T23:16:57.661Z,46.14
2019-03-05T23:19:28.523Z,48.68
2019-03-05T23:21:58.839Z,51.39
2019-03-05T23:24:29.031Z,48.03
2019-03-05T23:26:59.141Z,50.74
2019-03-05T23:29:42.942Z,51.35
2019-03-05T23:32:13.786Z,50.66
2019-03-05T23:34:43.990Z,49.49
2019-03-05T23:37:14.102Z,48.69
2019-03-05T23:39:44.460Z,49.03
2019-03-05T23:42:14.669Z,49.42
2019-03-05T23:44:44.850Z,49.13
2019-03-05T23:47:14.975Z,48.15
2019-03-05T23:49:44.980Z,49.35
2019-03-05T23:52:15.195Z,54.03
2019-03-05T23:54:45.394Z,49.29
2019-03-05T23:57:15.416Z,49.27
2019-03-05T23:59:45.605Z,51.64
